MGY weather

Dayton-Wright Brothers Airport
Dayton, Ohio, United States

Public forecast

Using degrees Fahrenheit for public forecast. Weather courtesy of forecast.io.

METAR (pilot weather report)

Retrieved 2019/05/27 12:39 UTC (0 seconds ago):

KMGY 271239Z AUTO 06006KT 1SM BR OVC002 18/17 A3007 RMK AO2 T01830172

TAF (pilot weather forecast)

Closest forecast is Wright-Patterson Air Force Base, 16.4 nm (30.4 km) NNE. Retrieved 2019/05/27 11:07 UTC (1 hour ago):

TAF KFFO 271100Z 2711/2817 03006KT 0800 FG OVC001 QNH3004INS TEMPO 2711/2713 1600 BR BECMG 2711/2713 03006KT 3200 BR BKN010 QNH3005INS BECMG 2713/2714 17009KT 9999 NSW BKN015 QNH3000INS BECMG 2715/2716 17009KT 9999 BKN020 QNH2980INS BECMG 2801/2802 18012KT 8000 -SHRA SCT020 BKN040 QNH2975INS TEMPO 2802/2805 15025G35KT 6000 -TSRA BKN020CB OVC040 BECMG 2804/2805 18010G15KT 9999 NSW SCT040 QNH2974INS BECMG 2814/2815 24015G25KT 9999 FEW025 SCT040 QNH2975INS TX28/2720Z TN17/2711Z